Time;durP1;ratioP1;P1;durP2;ratioP2;P2;SDS_P1;SDS_P2;PMS_P1;PMS_P2;Temp;Humidity;BMP_temperature;BMP_pressure;BME280_temperature;BME280_humidity;BME280_pressure;Samples;Min_cycle;Max_cycle;Signal;HPM_P1;HPM_P2
2023/01/13 00:02:07;;;;;;;2.20;0.53;;;10.10;99.90;;;;;;4974410;28;20212;-81
2023/01/13 00:04:33;;;;;;;3.80;0.57;;;10.10;99.90;;;;;;4990727;28;20191;-81
2023/01/13 00:06:59;;;;;;;1.03;0.50;;;10.10;99.90;;;;;;4990666;28;20430;-83
2023/01/13 00:09:24;;;;;;;1.80;0.40;;;10.10;99.90;;;;;;4974301;28;20558;-81
2023/01/13 00:11:50;;;;;;;1.20;0.60;;;10.10;99.90;;;;;;4958275;28;20206;-82
2023/01/13 00:14:16;;;;;;;2.10;0.60;;;10.10;99.90;;;;;;4974261;28;20285;-82
2023/01/13 00:16:42;;;;;;;1.37;0.50;;;10.00;99.90;;;;;;4974430;28;20214;-82
2023/01/13 00:19:08;;;;;;;2.47;1.03;;;10.10;99.90;;;;;;4973367;28;20462;-83
2023/01/13 00:21:35;;;;;;;2.27;0.60;;;10.30;99.90;;;;;;4991994;28;20199;-81
2023/01/13 00:24:01;;;;;;;2.40;0.60;;;10.10;99.90;;;;;;4974883;28;20189;-82
2023/01/13 00:26:29;;;;;;;1.13;0.60;;;10.10;99.90;;;;;;4992468;28;20409;-82
2023/01/13 00:28:59;;;;;;;2.20;0.60;;;10.20;99.90;;;;;;4975335;28;20454;-79
2023/01/13 00:31:26;;;;;;;1.67;0.73;;;10.20;99.90;;;;;;4975215;28;20880;-83
2023/01/13 00:33:51;;;;;;;0.90;0.77;;;10.20;99.90;;;;;;4992451;28;21205;-84
2023/01/13 00:36:20;;;;;;;2.40;0.60;;;10.20;99.90;;;;;;4974623;28;20538;-80
2023/01/13 00:38:46;;;;;;;1.57;0.77;;;10.20;99.90;;;;;;4990511;28;20655;-80
2023/01/13 00:41:14;;;;;;;1.57;0.50;;;10.10;99.90;;;;;;4990702;28;20513;-80
2023/01/13 00:43:41;;;;;;;2.90;0.60;;;10.20;99.90;;;;;;4992018;28;20426;-79
2023/01/13 00:46:09;;;;;;;0.90;0.60;;;10.20;99.90;;;;;;4974348;28;20916;-81
2023/01/13 00:48:36;;;;;;;0.80;0.50;;;10.00;99.90;;;;;;4974303;28;20433;-83
2023/01/13 00:51:11;;;;;;;0.90;0.60;;;10.20;99.90;;;;;;4991273;28;20873;-81
2023/01/13 00:53:39;;;;;;;1.50;0.67;;;10.20;99.90;;;;;;4974545;28;20521;-81
2023/01/13 00:56:13;;;;;;;0.97;0.60;;;10.20;99.90;;;;;;4974112;28;20838;-81
2023/01/13 00:58:38;;;;;;;4.13;0.90;;;10.20;99.90;;;;;;4974150;28;20472;-82
2023/01/13 01:01:07;;;;;;;1.33;0.70;;;10.20;99.90;;;;;;4974266;28;20433;-81
2023/01/13 01:03:34;;;;;;;2.03;0.43;;;10.20;99.90;;;;;;4991799;28;20426;-80
2023/01/13 01:06:07;;;;;;;1.63;0.50;;;10.20;99.90;;;;;;4991884;28;20424;-81
2023/01/13 01:08:34;;;;;;;2.40;0.60;;;10.30;99.90;;;;;;4974493;28;20417;-80
2023/01/13 01:11:04;;;;;;;1.00;0.67;;;10.20;99.90;;;;;;4990685;28;20782;-82
2023/01/13 01:13:29;;;;;;;1.00;0.50;;;10.30;99.90;;;;;;4974035;28;20437;-81
2023/01/13 01:15:55;;;;;;;1.20;0.60;;;10.30;99.90;;;;;;4973937;28;20425;-81
2023/01/13 01:18:21;;;;;;;1.57;0.50;;;10.30;99.90;;;;;;4973730;28;20213;-81
2023/01/13 01:20:46;;;;;;;1.10;0.70;;;10.30;99.90;;;;;;4989552;28;20184;-80
2023/01/13 01:23:12;;;;;;;2.37;0.60;;;10.30;99.90;;;;;;4957262;28;20212;-81
2023/01/13 01:25:37;;;;;;;2.50;0.57;;;10.30;99.90;;;;;;4990940;28;20183;-80
2023/01/13 01:28:03;;;;;;;3.07;0.50;;;10.50;99.90;;;;;;4974409;28;20188;-82
2023/01/13 01:30:29;;;;;;;0.70;0.50;;;10.40;99.90;;;;;;4989750;28;20196;-80
2023/01/13 01:32:56;;;;;;;1.73;0.40;;;10.30;99.90;;;;;;4990611;28;20248;-81
2023/01/13 01:35:22;;;;;;;1.30;0.50;;;10.40;99.90;;;;;;4990800;28;20461;-81
2023/01/13 01:37:48;;;;;;;1.00;0.50;;;10.30;99.90;;;;;;4973551;28;20476;-80
2023/01/13 01:40:14;;;;;;;1.37;0.40;;;10.30;99.90;;;;;;4989578;28;20506;-83
2023/01/13 01:45:27;;;;;;;0.77;0.40;;;10.30;99.90;;;;;;4990107;28;20180;-82
2023/01/13 01:47:59;;;;;;;1.93;0.50;;;10.30;99.90;;;;;;4973425;28;20961;-82
2023/01/13 01:50:26;;;;;;;1.67;0.77;;;10.30;99.90;;;;;;4990816;28;20421;-81
2023/01/13 01:52:58;;;;;;;1.43;0.60;;;10.30;99.90;;;;;;4988993;28;20441;-82
2023/01/13 01:55:32;;;;;;;0.80;0.50;;;10.20;99.90;;;;;;4973798;28;20502;-83
2023/01/13 01:58:11;;;;;;;3.17;0.50;;;10.30;99.90;;;;;;4993099;28;20544;-83
2023/01/13 02:00:37;;;;;;;4.00;0.60;;;10.30;99.90;;;;;;4993104;28;20948;-83
2023/01/13 02:03:04;;;;;;;2.83;0.60;;;10.20;99.90;;;;;;4977202;28;20436;-83
2023/01/13 02:05:29;;;;;;;1.23;0.50;;;10.20;99.90;;;;;;4959943;28;20433;-83
2023/01/13 02:07:58;;;;;;;1.10;0.60;;;10.20;99.90;;;;;;4976727;28;20434;-82
2023/01/13 02:10:27;;;;;;;2.90;0.60;;;10.20;99.90;;;;;;4976755;28;20224;-82
2023/01/13 02:12:55;;;;;;;1.87;0.67;;;10.20;99.90;;;;;;4978068;28;20520;-83
2023/01/13 02:15:39;;;;;;;2.43;0.73;;;10.20;99.90;;;;;;4994157;28;20420;-85
2023/01/13 02:18:37;;;;;;;0.90;0.50;;;10.10;99.90;;;;;;4977447;28;20551;-84
2023/01/13 02:21:24;;;;;;;3.30;0.70;;;10.10;99.90;;;;;;4993190;28;20413;-82
2023/01/13 02:27:21;;;;;;;1.63;0.60;;;10.20;99.90;;;;;;4991867;28;20436;-81
2023/01/13 02:33:25;;;;;;;2.93;0.70;;;10.20;99.90;;;;;;4990728;28;20452;-84
2023/01/13 02:36:11;;;;;;;0.83;0.47;;;10.20;99.90;;;;;;4964646;28;20440;-81
2023/01/13 02:38:50;;;;;;;1.27;0.50;;;10.20;99.90;;;;;;4975847;28;20949;-84
2023/01/13 02:44:21;;;;;;;1.57;0.50;;;10.10;99.90;;;;;;4997726;28;20428;-81
2023/01/13 02:46:49;;;;;;;2.60;0.63;;;10.10;99.90;;;;;;4995911;28;20954;-82
2023/01/13 02:49:27;;;;;;;2.70;0.60;;;10.10;99.90;;;;;;4995814;28;20443;-82
2023/01/13 02:51:59;;;;;;;1.00;0.60;;;10.30;99.90;;;;;;4979088;28;20451;-81
2023/01/13 02:54:27;;;;;;;1.47;0.40;;;10.20;99.90;;;;;;4978762;28;20440;-85
2023/01/13 02:56:54;;;;;;;1.10;0.70;;;10.20;99.90;;;;;;4978790;28;20441;-85
2023/01/13 02:59:24;;;;;;;2.10;0.93;;;10.30;99.90;;;;;;4978255;28;20489;-84
2023/01/13 03:01:53;;;;;;;1.60;0.80;;;10.20;99.90;;;;;;4962611;28;20434;-85
2023/01/13 03:04:45;;;;;;;1.00;0.50;;;10.10;99.90;;;;;;4995932;28;20444;-84
2023/01/13 03:07:31;;;;;;;4.90;0.97;;;10.10;99.90;;;;;;4993999;28;20505;-84
2023/01/13 03:10:14;;;;;;;1.80;0.60;;;10.10;99.90;;;;;;4976906;28;20852;-85
2023/01/13 03:12:49;;;;;;;0.80;0.50;;;10.10;99.90;;;;;;4994828;28;20398;-86
2023/01/13 03:15:46;;;;;;;1.10;0.40;;;10.10;99.90;;;;;;4977805;28;20422;-85
2023/01/13 03:18:44;;;;;;;0.70;0.40;;;10.10;99.90;;;;;;4977227;28;20998;-85
2023/01/13 03:21:22;;;;;;;2.23;0.60;;;10.10;99.90;;;;;;4958900;28;20454;-84
2023/01/13 03:23:53;;;;;;;0.80;0.40;;;10.10;99.90;;;;;;4977012;28;20417;-84
2023/01/13 03:26:36;;;;;;;0.93;0.53;;;10.10;99.90;;;;;;4993027;28;20456;-84
2023/01/13 03:29:47;;;;;;;2.90;0.70;;;10.10;99.90;;;;;;4994659;28;20458;-86
2023/01/13 03:32:21;;;;;;;4.50;0.60;;;10.10;99.90;;;;;;4952742;28;20445;-85
2023/01/13 03:35:06;;;;;;;1.43;0.50;;;10.10;99.90;;;;;;4988101;28;20426;-84
2023/01/13 03:37:39;;;;;;;1.70;1.03;;;10.00;99.90;;;;;;4974868;28;20468;-83
2023/01/13 03:40:14;;;;;;;3.93;1.10;;;10.10;99.90;;;;;;4975060;28;21011;-81
2023/01/13 03:44:20;;;;;;;0.60;0.40;;;10.00;99.90;;;;;;4992629;28;20470;-82
2023/01/13 03:45:34;;;;;;;0.70;0.50;;;10.00;99.90;;;;;;4992380;28;20429;-81
2023/01/13 03:48:04;;;;;;;1.20;0.60;;;10.00;99.90;;;;;;4992199;28;20432;-83
2023/01/13 03:50:38;;;;;;;1.53;0.83;;;10.00;99.90;;;;;;4974790;28;20414;-80
2023/01/13 03:53:13;;;;;;;2.07;0.60;;;9.90;99.90;;;;;;4974693;28;20463;-79
2023/01/13 03:55:43;;;;;;;1.30;0.50;;;10.10;99.90;;;;;;4992154;28;21310;-83
2023/01/13 03:58:32;;;;;;;1.93;0.60;;;10.00;99.90;;;;;;4990738;28;20519;-82
2023/01/13 04:01:18;;;;;;;0.90;0.70;;;10.10;99.90;;;;;;4990604;28;21084;-84
2023/01/13 04:03:51;;;;;;;1.27;0.60;;;10.10;99.90;;;;;;4974537;28;20897;-80
2023/01/13 04:06:37;;;;;;;2.70;0.80;;;10.00;99.90;;;;;;4974239;28;20429;-84
2023/01/13 04:09:32;;;;;;;0.80;0.50;;;10.10;99.90;;;;;;4970355;28;20433;-82
2023/01/13 04:12:21;;;;;;;4.53;0.50;;;10.10;99.90;;;;;;4991715;28;20981;-81
2023/01/13 04:14:48;;;;;;;1.60;0.60;;;10.10;99.90;;;;;;4971181;28;20480;-81
2023/01/13 04:17:15;;;;;;;1.90;0.70;;;10.10;99.90;;;;;;4958590;28;20528;-82
2023/01/13 04:19:40;;;;;;;1.17;0.40;;;10.10;99.90;;;;;;4974386;28;20942;-81
2023/01/13 04:22:06;;;;;;;1.10;0.60;;;10.10;99.90;;;;;;4974379;28;20487;-81
2023/01/13 04:24:32;;;;;;;2.03;1.10;;;10.10;99.90;;;;;;4973988;28;20190;-82
2023/01/13 04:26:57;;;;;;;3.03;0.50;;;10.10;99.90;;;;;;4973875;28;20253;-82
2023/01/13 04:29:23;;;;;;;1.10;0.47;;;10.10;99.90;;;;;;4973842;28;20193;-80
2023/01/13 04:31:49;;;;;;;0.70;0.50;;;10.10;99.90;;;;;;4989840;28;20228;-80
2023/01/13 04:34:14;;;;;;;1.77;0.60;;;10.00;99.90;;;;;;4990034;28;20205;-80
2023/01/13 04:36:40;;;;;;;1.03;0.50;;;10.10;99.90;;;;;;4973330;28;20226;-80
2023/01/13 04:39:06;;;;;;;1.93;0.87;;;10.00;99.90;;;;;;4973495;28;20247;-81
2023/01/13 04:44:15;;;;;;;2.27;0.50;;;9.90;99.90;;;;;;4976646;28;20188;-81
2023/01/13 04:46:41;;;;;;;1.67;0.60;;;10.00;99.90;;;;;;4989712;28;20426;-82
2023/01/13 04:49:07;;;;;;;2.40;0.60;;;10.00;99.90;;;;;;4958186;28;20191;-81
2023/01/13 04:51:32;;;;;;;0.80;0.50;;;9.80;99.90;;;;;;4990528;28;20554;-81
2023/01/13 04:53:58;;;;;;;1.37;0.60;;;9.80;99.90;;;;;;4989988;28;20191;-81
2023/01/13 04:56:24;;;;;;;0.80;0.40;;;10.00;99.90;;;;;;4957464;28;20202;-82
2023/01/13 04:58:49;;;;;;;1.47;0.53;;;9.90;99.90;;;;;;4957755;28;20766;-81
2023/01/13 05:01:15;;;;;;;0.90;0.40;;;10.00;99.90;;;;;;4989725;28;20294;-80
2023/01/13 05:03:40;;;;;;;1.27;0.50;;;10.00;99.90;;;;;;4957632;28;20185;-81
2023/01/13 05:06:06;;;;;;;0.90;0.50;;;9.80;99.90;;;;;;4973557;28;20284;-80
2023/01/13 05:08:31;;;;;;;0.60;0.40;;;9.80;99.90;;;;;;4973777;28;20249;-79
2023/01/13 05:11:00;;;;;;;1.37;0.50;;;9.90;99.90;;;;;;4989805;28;20607;-81
2023/01/13 05:18:55;;;;;;;0.60;0.40;;;9.80;99.90;;;;;;4991023;28;20483;-80
2023/01/13 05:26:51;;;;;;;1.00;0.40;;;10.10;99.90;;;;;;4991077;28;20937;-83
2023/01/13 05:29:16;;;;;;;1.20;0.50;;;10.10;99.90;;;;;;4991266;28;20441;-82
2023/01/13 05:31:42;;;;;;;1.70;0.40;;;10.20;99.90;;;;;;4989798;28;20213;-83
2023/01/13 05:34:08;;;;;;;0.70;0.40;;;10.20;99.90;;;;;;4973966;28;20198;-83
2023/01/13 05:36:33;;;;;;;1.70;0.50;;;10.30;99.90;;;;;;4989692;28;20182;-84
2023/01/13 05:38:59;;;;;;;0.70;0.40;;;10.20;99.90;;;;;;4956886;28;20635;-84
2023/01/13 05:44:09;;;;;;;0.70;0.40;;;10.10;99.90;;;;;;4990237;28;20201;-83
2023/01/13 05:46:34;;;;;;;4.10;0.60;;;10.20;99.90;;;;;;4957652;28;20809;-83
2023/01/13 05:49:00;;;;;;;0.70;0.40;;;10.20;99.90;;;;;;4957236;28;20186;-83
2023/01/13 05:51:26;;;;;;;2.00;0.50;;;10.20;99.90;;;;;;4989633;28;20209;-81
2023/01/13 05:53:51;;;;;;;2.00;0.60;;;10.10;99.90;;;;;;4973263;28;20300;-82
2023/01/13 05:56:17;;;;;;;0.80;0.50;;;10.20;99.90;;;;;;4973201;28;20186;-81
2023/01/13 05:58:43;;;;;;;0.90;0.40;;;10.20;99.90;;;;;;4989360;28;20217;-81
2023/01/13 06:01:10;;;;;;;0.70;0.40;;;10.20;99.90;;;;;;4972958;28;20186;-81
2023/01/13 06:03:36;;;;;;;1.77;0.60;;;10.40;99.90;;;;;;4988691;28;20533;-81
2023/01/13 06:06:02;;;;;;;1.87;0.47;;;10.20;99.90;;;;;;4988861;28;20421;-82
2023/01/13 06:08:29;;;;;;;0.67;0.40;;;10.20;99.90;;;;;;4989014;28;20508;-80
2023/01/13 06:10:56;;;;;;;1.27;0.40;;;10.00;99.90;;;;;;4987414;28;20425;-80
2023/01/13 06:13:21;;;;;;;2.60;0.40;;;10.20;99.90;;;;;;4989053;28;20516;-80
2023/01/13 06:15:47;;;;;;;0.77;0.40;;;10.30;99.90;;;;;;4971696;28;20537;-80
2023/01/13 06:18:13;;;;;;;0.90;0.40;;;10.30;99.90;;;;;;4955020;28;20706;-80
2023/01/13 06:20:38;;;;;;;0.60;0.30;;;10.30;99.90;;;;;;4972205;28;20199;-80
2023/01/13 06:23:08;;;;;;;0.80;0.40;;;10.30;99.90;;;;;;4987391;28;20305;-81
2023/01/13 06:25:43;;;;;;;0.67;0.40;;;10.40;99.90;;;;;;4989535;28;20193;-79
2023/01/13 06:28:09;;;;;;;0.90;0.40;;;10.30;99.90;;;;;;4990487;28;20416;-81
2023/01/13 06:30:40;;;;;;;0.80;0.40;;;10.30;99.90;;;;;;4972158;28;20441;-79
2023/01/13 06:33:11;;;;;;;1.20;0.40;;;10.30;99.90;;;;;;4988874;28;20476;-79
2023/01/13 06:35:39;;;;;;;1.17;0.70;;;10.40;99.90;;;;;;4970839;28;20463;-80
2023/01/13 06:38:08;;;;;;;0.70;0.40;;;10.30;99.90;;;;;;4970541;28;20476;-79
2023/01/13 06:40:34;;;;;;;1.33;0.50;;;10.30;99.90;;;;;;4955045;28;20518;-80
2023/01/13 06:43:15;;;;;;;0.90;0.37;;;10.30;99.90;;;;;;4971625;28;20454;-81
2023/01/13 06:45:52;;;;;;;0.67;0.33;;;10.30;99.90;;;;;;4972261;28;20460;-79
2023/01/13 06:48:36;;;;;;;1.33;0.40;;;10.30;99.90;;;;;;4970978;28;20990;-79
2023/01/13 06:51:02;;;;;;;1.37;0.40;;;10.30;99.90;;;;;;4987743;28;20446;-81
2023/01/13 06:53:28;;;;;;;0.60;0.30;;;10.30;99.90;;;;;;4988425;28;20516;-80
2023/01/13 06:55:54;;;;;;;1.17;0.40;;;10.40;99.90;;;;;;4970684;28;20520;-81
2023/01/13 06:58:19;;;;;;;1.37;0.40;;;10.40;99.90;;;;;;4957981;28;20914;-81
2023/01/13 07:00:50;;;;;;;0.70;0.40;;;10.30;99.90;;;;;;4971212;28;20610;-81
2023/01/13 07:03:16;;;;;;;0.60;0.33;;;10.30;99.90;;;;;;4987724;28;20254;-81
2023/01/13 07:05:51;;;;;;;0.60;0.30;;;10.30;99.90;;;;;;4971108;28;21172;-81
2023/01/13 07:08:16;;;;;;;1.10;0.40;;;10.30;99.90;;;;;;4989275;28;20905;-80
2023/01/13 07:10:42;;;;;;;0.60;0.30;;;10.30;99.90;;;;;;4971141;28;20431;-80
2023/01/13 07:16:03;;;;;;;2.70;0.30;;;10.40;99.90;;;;;;4987554;28;20973;-79
2023/01/13 07:18:31;;;;;;;0.60;0.30;;;10.30;99.90;;;;;;4989044;28;20485;-81
2023/01/13 07:20:59;;;;;;;0.60;0.30;;;10.30;99.90;;;;;;4987876;28;20915;-79
2023/01/13 07:23:27;;;;;;;0.90;0.40;;;10.30;99.90;;;;;;4987331;28;20417;-80
2023/01/13 07:25:57;;;;;;;0.60;0.30;;;10.40;99.90;;;;;;4970956;28;20473;-81
2023/01/13 07:28:28;;;;;;;0.90;0.40;;;10.30;99.90;;;;;;4991017;28;20427;-79
2023/01/13 07:30:54;;;;;;;1.23;0.40;;;10.40;99.90;;;;;;4974592;28;20775;-80
2023/01/13 07:33:20;;;;;;;1.10;0.40;;;10.40;99.90;;;;;;4974827;28;20521;-80
2023/01/13 07:35:47;;;;;;;0.60;0.40;;;10.30;99.90;;;;;;4990727;28;20430;-80
2023/01/13 07:38:13;;;;;;;1.37;0.60;;;10.40;99.90;;;;;;4992321;28;20286;-81
2023/01/13 07:40:39;;;;;;;0.60;0.30;;;10.40;99.90;;;;;;4992101;28;20417;-80
2023/01/13 07:46:04;;;;;;;0.70;0.40;;;10.40;99.90;;;;;;4992532;28;20401;-81
2023/01/13 07:48:32;;;;;;;0.60;0.30;;;10.40;99.90;;;;;;4975525;28;20479;-79
2023/01/13 07:51:03;;;;;;;0.70;0.30;;;10.40;99.90;;;;;;4974897;28;20475;-79
2023/01/13 07:53:28;;;;;;;0.70;0.40;;;10.40;99.90;;;;;;4974217;28;20433;-80
2023/01/13 07:55:56;;;;;;;0.60;0.33;;;10.40;99.90;;;;;;4975364;28;20501;-81
2023/01/13 07:58:21;;;;;;;0.70;0.40;;;10.40;99.90;;;;;;4994622;28;20206;-81
2023/01/13 08:00:47;;;;;;;0.80;0.40;;;10.70;99.90;;;;;;4993325;28;20433;-81
2023/01/13 08:03:13;;;;;;;0.70;0.40;;;10.40;99.90;;;;;;4993909;28;20206;-80
2023/01/13 08:05:38;;;;;;;0.80;0.30;;;10.50;99.90;;;;;;4992483;28;20194;-81
2023/01/13 08:08:04;;;;;;;0.70;0.40;;;10.50;99.90;;;;;;4992834;28;20200;-81
2023/01/13 08:10:30;;;;;;;0.80;0.40;;;10.60;99.90;;;;;;4993063;28;20194;-81
2023/01/13 08:15:40;;;;;;;0.70;0.40;;;10.60;99.90;;;;;;4994604;28;20718;-81
2023/01/13 08:18:05;;;;;;;0.70;0.40;;;10.60;99.90;;;;;;4974962;28;20579;-81
2023/01/13 08:20:31;;;;;;;0.80;0.40;;;10.60;99.90;;;;;;4976562;28;20192;-81
2023/01/13 08:22:58;;;;;;;1.80;1.40;;;10.70;99.90;;;;;;4974731;28;20347;-81
2023/01/13 08:25:25;;;;;;;1.50;1.07;;;10.70;99.90;;;;;;4991362;28;20207;-81
2023/01/13 08:27:50;;;;;;;0.70;0.40;;;10.80;99.90;;;;;;4992558;28;20453;-81
2023/01/13 08:30:16;;;;;;;1.07;0.30;;;10.90;99.90;;;;;;4974363;28;20954;-80
2023/01/13 08:32:47;;;;;;;1.10;0.40;;;10.70;99.90;;;;;;4991797;28;20277;-80
2023/01/13 08:35:13;;;;;;;1.27;0.80;;;10.90;99.90;;;;;;4974871;28;20433;-80
2023/01/13 08:37:39;;;;;;;0.80;0.43;;;10.70;99.90;;;;;;4990287;28;20425;-81
2023/01/13 08:40:05;;;;;;;0.60;0.30;;;10.60;99.90;;;;;;4956653;28;20782;-81
2023/01/13 08:42:31;;;;;;;1.23;0.50;;;10.80;99.90;;;;;;4990860;28;20454;-80
2023/01/13 08:44:57;;;;;;;0.90;0.43;;;10.80;99.90;;;;;;4972997;28;20451;-81
2023/01/13 08:47:23;;;;;;;1.73;0.40;;;10.70;99.90;;;;;;4988863;28;20465;-79
2023/01/13 08:49:49;;;;;;;1.17;0.40;;;10.80;99.90;;;;;;4991150;28;20188;-79
2023/01/13 08:52:15;;;;;;;0.70;0.40;;;10.70;99.90;;;;;;4973014;28;20609;-79
2023/01/13 08:54:41;;;;;;;0.60;0.33;;;10.60;99.90;;;;;;4990434;28;20186;-80
2023/01/13 08:57:07;;;;;;;0.70;0.50;;;10.60;99.90;;;;;;4990036;28;20417;-79
2023/01/13 08:59:33;;;;;;;0.70;0.50;;;10.60;99.90;;;;;;4972733;28;20229;-79
2023/01/13 09:01:59;;;;;;;1.10;0.60;;;10.40;99.90;;;;;;4990081;28;20204;-80
2023/01/13 09:04:27;;;;;;;0.60;0.40;;;10.50;99.90;;;;;;4972438;28;20443;-80
2023/01/13 09:06:53;;;;;;;0.90;0.30;;;10.50;99.90;;;;;;4973218;28;20518;-79
2023/01/13 09:09:20;;;;;;;1.00;0.40;;;10.40;99.90;;;;;;4973694;28;20461;-80
2023/01/13 09:14:35;;;;;;;0.70;0.40;;;10.50;99.90;;;;;;4991088;28;20937;-82
2023/01/13 09:17:01;;;;;;;0.70;0.40;;;10.30;99.90;;;;;;4974073;28;20468;-80
2023/01/13 09:19:27;;;;;;;0.70;0.40;;;10.30;99.90;;;;;;4989962;28;20504;-81
2023/01/13 09:21:54;;;;;;;1.00;0.63;;;10.10;99.90;;;;;;4957646;28;20210;-81
2023/01/13 09:24:20;;;;;;;0.80;0.43;;;10.20;99.90;;;;;;4974052;28;20466;-80
2023/01/13 09:26:46;;;;;;;0.60;0.40;;;10.10;99.90;;;;;;4973857;28;20438;-81
2023/01/13 09:29:11;;;;;;;0.70;0.40;;;10.10;99.90;;;;;;4975040;28;20431;-82
2023/01/13 09:31:37;;;;;;;1.07;0.57;;;10.10;99.90;;;;;;4991232;28;20687;-81
2023/01/13 09:36:48;;;;;;;0.70;0.40;;;10.10;99.90;;;;;;4990903;28;20193;-80
2023/01/13 09:39:14;;;;;;;0.70;0.37;;;10.10;99.90;;;;;;4988905;28;20853;-81
2023/01/13 09:44:57;;;;;;;0.70;0.40;;;10.10;99.90;;;;;;4991272;28;20194;-80
2023/01/13 09:47:31;;;;;;;0.60;0.30;;;10.10;99.90;;;;;;4973303;28;20954;-81
2023/01/13 09:50:37;;;;;;;1.10;0.60;;;10.00;99.90;;;;;;4988660;28;20930;-81
2023/01/13 09:53:09;;;;;;;4.20;0.40;;;10.00;99.90;;;;;;4971833;28;20445;-80
2023/01/13 09:55:35;;;;;;;0.60;0.33;;;10.00;99.90;;;;;;4972313;28;20433;-81
2023/01/13 09:58:21;;;;;;;0.80;0.40;;;10.10;99.90;;;;;;4991138;28;20461;-81
2023/01/13 10:01:05;;;;;;;0.60;0.40;;;10.00;99.90;;;;;;4972153;28;20574;-80
2023/01/13 10:03:32;;;;;;;0.70;0.40;;;10.00;99.90;;;;;;4972114;28;20422;-80
2023/01/13 10:06:24;;;;;;;0.60;0.40;;;10.00;99.90;;;;;;4971723;28;21270;-81
2023/01/13 10:08:50;;;;;;;0.90;0.50;;;10.00;99.90;;;;;;4968685;28;20425;-81
2023/01/13 10:14:19;;;;;;;1.30;0.60;;;9.50;99.90;;;;;;4989218;28;20617;-82
2023/01/13 10:17:10;;;;;;;0.60;0.40;;;9.30;99.90;;;;;;4973811;28;20856;-82
2023/01/13 10:19:44;;;;;;;1.73;0.60;;;8.80;99.90;;;;;;4972277;28;20536;-81
2023/01/13 10:22:26;;;;;;;1.00;0.50;;;8.60;99.90;;;;;;4989091;28;20434;-81
2023/01/13 10:25:10;;;;;;;1.03;0.50;;;8.50;99.90;;;;;;4989492;28;20897;-81
2023/01/13 10:27:38;;;;;;;1.17;0.50;;;8.40;99.90;;;;;;4971434;28;20462;-81
2023/01/13 10:30:31;;;;;;;0.90;0.70;;;8.30;99.90;;;;;;4971824;28;20431;-80
2023/01/13 10:32:59;;;;;;;2.40;0.50;;;8.30;99.90;;;;;;4988170;28;20477;-80
2023/01/13 10:35:47;;;;;;;1.90;0.90;;;8.40;99.90;;;;;;4970787;28;20421;-80
2023/01/13 10:38:21;;;;;;;1.83;1.10;;;8.40;99.90;;;;;;4988630;28;20464;-81
2023/01/13 10:41:02;;;;;;;1.80;0.97;;;8.40;99.90;;;;;;4987062;28;20494;-80
2023/01/13 10:43:29;;;;;;;1.13;1.03;;;8.40;99.90;;;;;;4988929;28;20902;-81
2023/01/13 10:46:09;;;;;;;4.20;2.57;;;8.40;99.90;;;;;;4994538;28;20428;-80
2023/01/13 10:48:52;;;;;;;1.50;1.00;;;8.40;99.90;;;;;;4987266;28;20435;-80
2023/01/13 10:51:36;;;;;;;1.57;0.70;;;8.40;99.90;;;;;;4978725;28;20427;-81
2023/01/13 10:54:19;;;;;;;3.63;1.13;;;8.50;99.90;;;;;;4988679;28;20425;-80
2023/01/13 10:56:45;;;;;;;0.80;0.70;;;8.50;99.90;;;;;;4990184;28;20439;-82
2023/01/13 10:59:28;;;;;;;6.63;1.20;;;8.50;99.90;;;;;;4989661;28;20642;-82
2023/01/13 11:01:59;;;;;;;0.90;0.70;;;8.80;99.90;;;;;;4990480;28;20443;-82
2023/01/13 11:04:36;;;;;;;0.90;0.70;;;8.80;99.90;;;;;;4975448;28;20422;-81
2023/01/13 11:07:04;;;;;;;1.00;0.50;;;8.90;99.90;;;;;;4976560;28;20463;-82
2023/01/13 11:09:30;;;;;;;1.00;0.60;;;8.90;99.90;;;;;;4992605;28;20536;-82
2023/01/13 11:11:58;;;;;;;1.10;0.50;;;8.90;99.90;;;;;;4992785;28;20483;-81
2023/01/13 11:14:35;;;;;;;1.07;0.70;;;8.90;99.90;;;;;;4994764;28;20535;-82
2023/01/13 11:17:26;;;;;;;1.17;0.60;;;8.90;99.90;;;;;;4993353;28;20465;-82
2023/01/13 11:20:15;;;;;;;1.27;0.50;;;8.90;99.90;;;;;;4993707;28;20463;-81
2023/01/13 11:22:51;;;;;;;1.17;0.70;;;8.70;99.90;;;;;;4992639;28;20432;-81
2023/01/13 11:25:32;;;;;;;12.33;0.93;;;8.60;99.90;;;;;;4974881;28;20850;-80
2023/01/13 11:28:29;;;;;;;0.70;0.43;;;8.30;99.90;;;;;;4992512;28;20427;-80
2023/01/13 11:31:04;;;;;;;1.67;0.50;;;8.20;99.90;;;;;;4993051;28;20444;-81
2023/01/13 11:33:41;;;;;;;2.70;0.60;;;7.90;99.90;;;;;;4976147;28;20573;-81
2023/01/13 11:36:12;;;;;;;0.80;0.50;;;7.70;99.90;;;;;;4975062;28;20426;-81
2023/01/13 11:39:01;;;;;;;0.80;0.50;;;7.40;99.90;;;;;;4990945;28;20479;-77
2023/01/13 11:41:35;;;;;;;0.70;0.50;;;7.30;99.90;;;;;;4992076;28;20436;-77
2023/01/13 11:44:09;;;;;;;4.10;0.40;;;7.20;99.90;;;;;;4992761;28;20477;-78
2023/01/13 11:46:35;;;;;;;2.20;0.40;;;7.10;99.90;;;;;;4974863;28;20504;-78
2023/01/13 11:49:02;;;;;;;1.07;0.40;;;7.10;99.90;;;;;;4992750;28;21330;-78
2023/01/13 11:51:28;;;;;;;1.10;0.40;;;7.10;99.90;;;;;;4992436;28;20433;-78
2023/01/13 11:54:25;;;;;;;0.70;0.40;;;7.10;99.90;;;;;;4992260;28;20923;-79
2023/01/13 11:57:07;;;;;;;0.90;0.40;;;7.10;99.90;;;;;;4992235;28;20255;-78
2023/01/13 12:00:01;;;;;;;1.20;0.50;;;7.10;99.90;;;;;;4992905;28;20472;-76
2023/01/13 12:02:29;;;;;;;1.30;0.60;;;7.00;99.90;;;;;;4975135;28;20449;-78
2023/01/13 12:05:12;;;;;;;1.27;0.47;;;6.90;99.90;;;;;;4992201;28;20416;-78
2023/01/13 12:07:56;;;;;;;0.97;0.40;;;6.70;99.90;;;;;;4992391;28;20425;-77
2023/01/13 12:10:32;;;;;;;1.10;0.60;;;6.50;99.90;;;;;;4994426;28;20444;-78
2023/01/13 12:13:16;;;;;;;1.53;0.40;;;6.50;99.90;;;;;;4993126;28;20440;-77
2023/01/13 12:15:57;;;;;;;2.40;0.40;;;6.40;99.90;;;;;;4991069;28;20413;-78
2023/01/13 12:18:46;;;;;;;1.20;0.73;;;6.20;99.90;;;;;;4992164;28;20464;-78
2023/01/13 12:21:25;;;;;;;1.33;0.40;;;6.10;99.90;;;;;;4991103;28;20893;-77
2023/01/13 12:24:02;;;;;;;1.33;0.50;;;6.10;99.90;;;;;;4991334;28;20479;-78
2023/01/13 12:26:33;;;;;;;0.80;0.60;;;6.20;99.90;;;;;;4990879;28;20416;-78
2023/01/13 12:29:10;;;;;;;0.90;0.50;;;6.20;99.90;;;;;;4991051;28;20532;-77
2023/01/13 12:31:38;;;;;;;1.00;0.50;;;6.20;99.90;;;;;;4972930;28;20475;-78
2023/01/13 12:34:25;;;;;;;0.70;0.40;;;6.30;99.90;;;;;;4972705;28;20480;-78
2023/01/13 12:37:12;;;;;;;3.17;0.80;;;6.40;99.90;;;;;;4990841;28;21227;-77
2023/01/13 12:39:50;;;;;;;2.30;0.50;;;6.50;99.90;;;;;;4990596;28;20468;-78
2023/01/13 12:45:37;;;;;;;1.13;0.53;;;6.40;99.90;;;;;;4987210;28;20443;-77
2023/01/13 12:48:04;;;;;;;11.30;1.80;;;6.50;99.90;;;;;;4972710;28;20440;-78
2023/01/13 12:50:30;;;;;;;3.37;0.80;;;6.60;99.90;;;;;;4973154;28;20185;-77
2023/01/13 12:52:57;;;;;;;1.90;0.60;;;6.90;99.90;;;;;;4991390;28;20458;-77
2023/01/13 12:55:24;;;;;;;4.43;0.73;;;7.00;99.90;;;;;;4991453;28;20737;-78
2023/01/13 12:58:04;;;;;;;1.73;0.70;;;7.20;99.90;;;;;;4989697;28;20429;-78
2023/01/13 13:00:39;;;;;;;1.43;0.50;;;7.20;99.90;;;;;;4994656;28;20544;-78
2023/01/13 13:03:11;;;;;;;3.00;0.60;;;7.20;99.90;;;;;;4997472;28;20445;-78
2023/01/13 13:05:43;;;;;;;3.87;0.97;;;7.20;99.90;;;;;;4993930;28;20432;-78
2023/01/13 13:08:14;;;;;;;4.30;0.60;;;7.20;99.90;;;;;;4991003;28;20456;-77
2023/01/13 13:10:56;;;;;;;3.30;0.70;;;7.10;99.90;;;;;;4988955;28;20524;-77
2023/01/13 13:13:45;;;;;;;1.73;0.80;;;7.10;99.90;;;;;;4990128;28;20456;-77
2023/01/13 13:16:23;;;;;;;2.60;0.63;;;7.00;99.90;;;;;;4988380;28;20432;-77
2023/01/13 13:18:49;;;;;;;2.23;0.60;;;7.00;99.90;;;;;;4989875;28;21048;-78
2023/01/13 13:21:14;;;;;;;3.97;0.80;;;7.40;99.90;;;;;;4972388;28;20483;-77
2023/01/13 13:23:52;;;;;;;3.30;0.80;;;7.90;99.90;;;;;;4988531;28;20193;-77
2023/01/13 13:26:30;;;;;;;4.30;0.80;;;8.30;99.90;;;;;;4990317;28;20648;-77
2023/01/13 13:29:31;;;;;;;3.43;0.80;;;8.50;99.90;;;;;;4988412;28;20487;-77
2023/01/13 13:32:22;;;;;;;4.37;0.90;;;9.00;99.90;;;;;;4966142;28;20536;-78
2023/01/13 13:35:17;;;;;;;2.43;0.77;;;9.70;99.90;;;;;;4989140;28;20445;-77
2023/01/13 13:46:47;;;;;;;2.80;0.80;;;11.20;99.90;;;;;;4993672;28;20520;-78
2023/01/13 13:49:19;;;;;;;6.83;1.00;;;11.70;99.90;;;;;;4994491;28;20425;-79
2023/01/13 13:51:48;;;;;;;1.63;0.63;;;12.10;99.90;;;;;;4993518;28;20922;-79
2023/01/13 13:54:20;;;;;;;1.87;0.90;;;12.20;99.90;;;;;;4976349;28;20435;-79
2023/01/13 13:56:47;;;;;;;2.57;0.77;;;11.80;99.90;;;;;;4976991;28;20820;-79
2023/01/13 13:59:25;;;;;;;3.13;0.80;;;11.30;99.90;;;;;;4976591;28;20471;-80
2023/01/13 14:02:02;;;;;;;4.47;1.03;;;10.60;99.90;;;;;;4979411;28;20425;-80
2023/01/13 14:04:34;;;;;;;3.07;0.67;;;10.30;99.90;;;;;;4979549;28;20455;-80
2023/01/13 14:07:19;;;;;;;1.93;0.90;;;9.80;99.90;;;;;;4997095;28;20410;-80
2023/01/13 14:09:48;;;;;;;4.07;0.90;;;9.60;99.90;;;;;;4995045;28;20445;-80
2023/01/13 14:12:21;;;;;;;3.80;1.27;;;9.40;99.90;;;;;;4996646;28;20427;-80
2023/01/13 14:14:48;;;;;;;5.30;0.90;;;9.10;99.90;;;;;;4995955;28;20444;-80
2023/01/13 14:17:32;;;;;;;5.27;1.60;;;9.10;99.90;;;;;;4995904;28;20420;-80